My Meet Scores
Kate Promis, Gymnastics X-Calibur - MyMeetScores.com
Top100 | Top Teams | Upcoming Meets | Completed Meets | Latest | Add Scores | Help| Support | Bookmark and Share

Kate Promis, Gymnastics X-Calibur
Personal Bests
LevelVault BarsBeamFloorAA
XG9.1509.900 9.5009.35037.025
XS9.2509.775 9.8009.67537.950
Scores on America's Top 100as of 11.25.2020
Year Level Vault Bars Beam Floor AA
2020 XG9.900

Click here to view our exclusive Top 100 Collection
Meet Scores
Date Meet Team Session Level Division Vault Bars Beam Floor AA
2020-02-21 Kinetic Classic Gymnastics X-Calibur 10 XG Older 9.150 43T 9.900 1 9.150 23T 8.825 66T 37.025 28
2020-01-31 LEgacy Elite Classic Gymnastics X-Calibur 5 XG Jr 8.550 9T 9.350 2T 9.025 5T 9.125 7 36.050 5
2020-01-24 King Arthur Invitational Gymnastics X-Calibur 11 XG SR A 8.550 7 9.350 4 9.350 1 9.300 3 36.550 3
2020-01-10 Leenda's Island Adventure Gymnastics X-Calibur GG9 XG 12 Year Ol 8.375 12 9.450 6T 8.150 11T 9.300 4T 35.275 14
2019-12-07 Home for the Holidays 2019 Gymnastics X-Calibur 5 XG Older 8.500 9 9.600 1 9.325 3 9.350 4 36.775 3
2019-11-08 Illinois Judges Cup Gymnastics X-Calibur P6 XG All Ages 8.800 24T 9.325 6 9.150 5 8.900 25T 36.175 8
2019-05-03 2019 Region 5 Xcel Championships Gymnastics X-Calibur 13O XS SR B 9.050 19T 9.775 3T 9.625 4T 9.500 14T 37.950 10T
2019-04-13 2019 Illinois XB, XS State Championships Gymnastics X-Calibur 1 XS Sr C 9.250 12T 8.125 28 9.600 6T 9.500 7T 36.475 25
2019-02-15 Women's Midwest Open Gymnastics X-Calibur 10 XG Junior B 8.600 9 9.500 2 9.500 1 9.350 6 36.950 4
2019-02-08 Midwest Twisters Harley Meet Womens Gymnastics X-Calibur S05 XG 12a 8.100 11 9.425 3 8.950 4 8.925 8 35.400 6
2019-01-25 King Arthur Invitational Gymnastics X-Calibur 19 XG JR 8.600 11 8.750 9 8.200 12 9.200 10 34.750 13
2019-01-04 Leenda's Island Adventure Gymnastics X-Calibur P07 XG 11 Year Ol 8.200 24T 9.450 10 9.300 2 9.175 3 36.125 8
2018-11-30 Ultimate Wish Classic Gymnastics X-Calibur 9 XG JR 8.600 14 9.275 7T 8.575 12 9.000 13 35.450 12
2018-04-26 Xcel Region 5 Championships Gymnastics X-Calibur 8B XS Jr C 8.500 29 9.625 3 9.425 11 9.400 8 36.950 17
2018-04-06 XCEL State Championships Gymnastics X-Calibur 4A XS Jr C 9.000 23T 9.375 11T 9.800 2 9.675 2 37.850 7
2018-03-01 Derby Classic 2018 Gymnastics X-Calibur 8A XS Sr A 7.900 13 9.550 5 9.350 1 9.450 2 36.250 7
2018-02-03 Midwest Games Gymnastics X-Calibur 2 XS SR A 8.800 10 9.100 8 9.150 5T 9.325 3 36.375 5
2018-01-26 King Arthur Invitational Gymnastics X-Calibur 10 XS SR A 9.000 5T 9.550 5 9.600 2 9.300 3T 37.450 2
2018-01-04 Leenda's Island Adventure Gymnastics X-Calibur G07 XS 10 Year Ol 8.750 8 9.650 3T 9.575 3 9.300 3 37.275 3
2017-12-01 Ultimate Wish Classic Gymnastics X-Calibur 14 XS SR1 8.350 17 9.075 7 9.675 1 9.575 2 36.675 3
Get your scores on
a t-shirt, pin, or hoodie

www.lazysuits.com